Time;durP1;ratioP1;P1;durP2;ratioP2;P2;SDS_P1;SDS_P2;PMS_P1;PMS_P2;Temp;Humidity;BMP_temperature;BMP_pressure;BME280_temperature;BME280_humidity;BME280_pressure;Samples;Min_cycle;Max_cycle;Signal;HPM_P1;HPM_P2
2021/12/04 00:01:24;;;;;;;926.03;245.47;;;4.70;99.90;;;;;;5157045;27;20422;-75
2021/12/04 00:03:53;;;;;;;145.77;62.30;;;4.70;99.90;;;;;;5157091;27;20457;-74
2021/12/04 00:06:25;;;;;;;134.43;43.73;;;4.70;99.90;;;;;;5138215;27;20494;-75
2021/12/04 00:09:03;;;;;;;110.33;53.40;;;4.70;99.90;;;;;;5138325;27;20461;-74
2021/12/04 00:11:37;;;;;;;108.90;75.77;;;4.80;99.90;;;;;;5156773;27;20409;-74
2021/12/04 00:14:05;;;;;;;1642.30;348.90;;;4.80;99.90;;;;;;5156332;27;20508;-75
2021/12/04 00:16:33;;;;;;;204.00;47.50;;;4.80;99.90;;;;;;5157378;27;20478;-75
2021/12/04 00:19:02;;;;;;;58.30;54.20;;;4.70;99.90;;;;;;5138386;27;20467;-75
2021/12/04 00:21:31;;;;;;;125.33;51.60;;;4.80;99.90;;;;;;5138094;27;20456;-75
2021/12/04 00:24:00;;;;;;;65.63;61.57;;;4.80;99.90;;;;;;5137839;27;20814;-75
2021/12/04 00:26:28;;;;;;;87.23;76.43;;;4.80;99.90;;;;;;5137857;27;20874;-74
2021/12/04 00:28:56;;;;;;;253.67;115.27;;;4.80;99.90;;;;;;5156357;27;20468;-74
2021/12/04 00:31:26;;;;;;;161.53;88.33;;;4.80;99.90;;;;;;5137566;27;20450;-75
2021/12/04 00:33:54;;;;;;;111.20;48.53;;;4.80;99.90;;;;;;5155986;27;20500;-74
2021/12/04 00:36:30;;;;;;;105.00;52.37;;;4.80;99.90;;;;;;5156296;27;20457;-74
2021/12/04 00:50:14;;;;;;;156.70;78.27;;;4.80;99.90;;;;;;5137091;27;20461;-74
2021/12/04 00:52:43;;;;;;;94.77;75.57;;;4.80;99.90;;;;;;5137029;27;20465;-75
2021/12/04 00:55:12;;;;;;;1642.67;375.47;;;4.80;99.90;;;;;;5136998;27;21019;-74
2021/12/04 00:57:41;;;;;;;76.30;70.47;;;4.80;99.90;;;;;;5137106;27;20450;-74
2021/12/04 01:00:10;;;;;;;341.80;98.03;;;4.80;99.90;;;;;;5136877;27;20438;-74
2021/12/04 01:02:38;;;;;;;1211.33;272.73;;;4.80;99.90;;;;;;5136842;27;20469;-75
2021/12/04 01:05:07;;;;;;;147.97;51.40;;;4.80;99.90;;;;;;5136564;27;20446;-75
2021/12/04 01:07:35;;;;;;;132.33;57.17;;;4.80;99.90;;;;;;5136926;27;20814;-75
2021/12/04 01:10:06;;;;;;;97.73;40.23;;;4.80;99.90;;;;;;5155492;27;20508;-75
2021/12/04 01:12:36;;;;;;;1142.33;289.23;;;4.80;99.90;;;;;;5136545;27;20547;-75
2021/12/04 01:15:06;;;;;;;1676.50;300.77;;;4.80;99.90;;;;;;5136674;27;20508;-74
2021/12/04 01:17:40;;;;;;;125.37;51.47;;;4.80;99.90;;;;;;5155496;27;20417;-74
2021/12/04 01:20:12;;;;;;;1661.87;401.20;;;4.80;99.90;;;;;;5155541;27;20470;-75
2021/12/04 01:22:40;;;;;;;80.23;65.20;;;4.80;99.90;;;;;;5137016;27;20501;-75
2021/12/04 01:25:09;;;;;;;157.70;57.50;;;4.80;99.90;;;;;;5138059;27;20509;-75
2021/12/04 01:27:39;;;;;;;174.97;66.23;;;4.80;99.90;;;;;;5137083;27;20487;-74
2021/12/04 01:30:08;;;;;;;123.77;73.07;;;4.80;99.90;;;;;;5137006;27;20560;-75
2021/12/04 01:32:37;;;;;;;1141.13;323.70;;;4.80;99.90;;;;;;5136885;27;20476;-75
2021/12/04 01:35:05;;;;;;;141.87;52.77;;;4.80;99.90;;;;;;5136820;27;20469;-75
2021/12/04 01:37:34;;;;;;;824.07;271.90;;;4.80;99.90;;;;;;5155229;27;20440;-75
2021/12/04 01:40:02;;;;;;;176.10;55.17;;;4.80;99.90;;;;;;5136737;27;20498;-75
2021/12/04 01:42:34;;;;;;;132.77;72.20;;;4.80;99.90;;;;;;5136920;27;20894;-75
2021/12/04 01:45:05;;;;;;;1183.20;297.87;;;4.80;99.90;;;;;;5136736;27;20862;-75
2021/12/04 01:47:34;;;;;;;91.80;51.67;;;4.80;99.90;;;;;;5136544;27;20469;-75
2021/12/04 01:50:03;;;;;;;216.63;65.97;;;4.80;99.90;;;;;;5136624;27;20556;-75
2021/12/04 01:52:31;;;;;;;150.97;57.43;;;4.90;99.90;;;;;;5136519;27;20987;-75
2021/12/04 01:54:59;;;;;;;107.53;60.67;;;4.80;99.90;;;;;;5136606;27;20449;-75
2021/12/04 01:57:28;;;;;;;1191.60;304.83;;;4.80;99.90;;;;;;5136456;27;20464;-74
2021/12/04 01:59:56;;;;;;;226.23;59.73;;;4.80;99.90;;;;;;5136614;27;20445;-75
2021/12/04 02:02:29;;;;;;;92.40;82.33;;;4.80;99.90;;;;;;5136535;27;20461;-75
2021/12/04 02:04:57;;;;;;;1526.47;356.40;;;4.90;99.90;;;;;;5155229;27;20437;-75
2021/12/04 02:07:25;;;;;;;182.97;62.03;;;4.80;99.90;;;;;;5155146;27;20521;-75
2021/12/04 02:09:53;;;;;;;160.97;60.37;;;4.80;99.90;;;;;;5136338;27;20457;-75
2021/12/04 02:12:22;;;;;;;223.83;91.63;;;4.80;99.90;;;;;;5136276;27;20504;-75
2021/12/04 02:14:50;;;;;;;148.90;62.77;;;4.80;99.90;;;;;;5154878;27;20525;-75
2021/12/04 02:17:18;;;;;;;248.50;62.03;;;4.80;99.90;;;;;;5140106;27;20445;-75
2021/12/04 02:19:48;;;;;;;217.50;59.73;;;4.80;99.90;;;;;;5140531;27;20466;-75
2021/12/04 02:22:18;;;;;;;1393.40;334.40;;;4.80;99.90;;;;;;5140220;27;20465;-75
2021/12/04 02:24:46;;;;;;;155.03;53.40;;;4.80;99.90;;;;;;5159173;27;20489;-75
2021/12/04 02:27:14;;;;;;;134.13;62.30;;;4.90;99.90;;;;;;5140339;27;20442;-75
2021/12/04 02:29:47;;;;;;;1072.30;294.93;;;4.90;99.90;;;;;;5140193;27;20484;-75
2021/12/04 02:32:20;;;;;;;94.03;87.00;;;4.90;99.90;;;;;;5140278;27;20563;-74
2021/12/04 02:34:49;;;;;;;116.63;60.70;;;4.90;99.90;;;;;;5159298;27;20525;-75
2021/12/04 02:37:18;;;;;;;147.57;71.23;;;4.90;99.90;;;;;;5140983;27;20449;-75
2021/12/04 02:39:56;;;;;;;159.50;90.20;;;4.90;99.90;;;;;;5159485;27;20935;-75
2021/12/04 02:42:27;;;;;;;210.27;74.97;;;4.90;99.90;;;;;;5159482;27;20852;-75
2021/12/04 02:44:56;;;;;;;132.40;89.93;;;4.90;99.90;;;;;;5158340;27;20840;-75
2021/12/04 02:47:24;;;;;;;166.10;51.20;;;4.90;99.90;;;;;;5139350;27;20446;-75
2021/12/04 02:49:53;;;;;;;1743.10;751.03;;;4.90;99.90;;;;;;5139335;27;21039;-74
2021/12/04 02:52:24;;;;;;;67.10;61.43;;;4.90;99.90;;;;;;5139231;27;20469;-75
2021/12/04 02:54:53;;;;;;;89.87;78.27;;;4.90;99.90;;;;;;5139579;27;20433;-75
2021/12/04 02:57:21;;;;;;;94.77;71.93;;;4.90;99.90;;;;;;5161240;27;20521;-75
2021/12/04 02:59:50;;;;;;;178.77;61.30;;;4.90;99.90;;;;;;5152573;27;20433;-75
2021/12/04 03:02:20;;;;;;;182.13;62.97;;;4.90;99.90;;;;;;5183077;27;20520;-77
2021/12/04 03:04:53;;;;;;;1592.83;359.00;;;4.90;99.90;;;;;;5165449;27;20425;-76
2021/12/04 03:07:24;;;;;;;85.10;73.47;;;4.90;99.90;;;;;;5167865;27;20435;-75
2021/12/04 03:09:53;;;;;;;223.37;83.27;;;4.90;99.90;;;;;;5158901;27;20438;-75
2021/12/04 03:12:23;;;;;;;97.43;82.17;;;4.90;99.90;;;;;;5140092;27;20488;-75
2021/12/04 03:14:52;;;;;;;142.33;106.17;;;4.90;99.90;;;;;;5139613;27;20440;-75
2021/12/04 03:17:22;;;;;;;1542.60;367.77;;;4.90;99.90;;;;;;5139476;27;20849;-75
2021/12/04 03:19:52;;;;;;;140.43;72.60;;;4.90;99.90;;;;;;5157482;27;20453;-75
2021/12/04 03:22:23;;;;;;;1646.70;368.47;;;4.80;99.90;;;;;;5139102;27;20520;-75
2021/12/04 03:24:54;;;;;;;132.37;92.70;;;4.90;99.90;;;;;;5139162;27;20877;-75
2021/12/04 03:27:24;;;;;;;137.30;104.00;;;4.90;99.90;;;;;;5138728;27;20434;-75
2021/12/04 03:29:56;;;;;;;190.53;146.40;;;4.90;99.90;;;;;;5139181;27;20882;-75
2021/12/04 03:32:51;;;;;;;134.30;122.43;;;4.90;99.90;;;;;;5139120;27;20488;-75
2021/12/04 03:40:01;;;;;;;1999.90;601.40;;;4.90;99.90;;;;;;5139958;27;20449;-75
2021/12/04 03:41:03;;;;;;;1999.90;639.53;;;4.90;99.90;;;;;;5138497;27;20445;-75
2021/12/04 03:43:31;;;;;;;169.07;149.23;;;4.90;99.90;;;;;;5138532;27;20489;-75
2021/12/04 03:46:03;;;;;;;243.77;145.30;;;4.90;99.90;;;;;;5138410;27;20887;-75
2021/12/04 03:51:18;;;;;;;1646.67;364.93;;;4.90;99.90;;;;;;5157070;27;20808;-76
2021/12/04 03:53:48;;;;;;;1636.00;394.33;;;4.90;99.90;;;;;;5138265;27;20465;-75
2021/12/04 03:56:21;;;;;;;253.60;116.17;;;4.90;99.90;;;;;;5138409;27;20496;-75
2021/12/04 03:58:50;;;;;;;190.17;57.50;;;4.90;99.90;;;;;;5157178;27;20406;-75
2021/12/04 04:01:18;;;;;;;207.20;109.90;;;4.80;99.90;;;;;;5156949;27;20509;-75
2021/12/04 04:03:46;;;;;;;1646.13;374.40;;;4.90;99.90;;;;;;5138095;27;20456;-75
2021/12/04 04:06:15;;;;;;;109.37;87.00;;;4.90;99.90;;;;;;5138268;27;20490;-75
2021/12/04 04:08:43;;;;;;;193.83;95.27;;;4.90;99.90;;;;;;5156742;27;20512;-75
2021/12/04 04:11:13;;;;;;;1630.50;393.33;;;4.90;99.90;;;;;;5156872;27;20932;-75
2021/12/04 04:13:43;;;;;;;169.40;125.87;;;4.90;99.90;;;;;;5137788;27;20518;-76
2021/12/04 04:16:12;;;;;;;183.20;137.03;;;4.90;99.90;;;;;;5137804;27;20868;-75
2021/12/04 04:18:41;;;;;;;165.60;144.43;;;4.90;99.90;;;;;;5137863;27;20481;-75
2021/12/04 04:21:09;;;;;;;151.43;111.50;;;4.90;99.90;;;;;;5138093;27;20434;-75
2021/12/04 04:23:37;;;;;;;211.37;94.80;;;4.90;99.90;;;;;;5137488;27;20469;-75
2021/12/04 04:26:05;;;;;;;1940.33;510.80;;;4.90;99.90;;;;;;5137709;27;20827;-75
2021/12/04 04:28:35;;;;;;;1596.00;366.00;;;4.90;99.90;;;;;;5137588;27;20452;-75
2021/12/04 04:31:04;;;;;;;159.20;100.83;;;4.90;99.90;;;;;;5137270;27;20992;-75
2021/12/04 04:33:36;;;;;;;157.07;119.07;;;4.90;99.90;;;;;;5137880;27;20473;-75
2021/12/04 04:36:13;;;;;;;1649.37;322.00;;;4.80;99.90;;;;;;5137797;27;20951;-75
2021/12/04 04:38:47;;;;;;;130.43;95.77;;;4.90;99.90;;;;;;5136893;27;20480;-75
2021/12/04 04:58:19;;;;;;;176.13;120.03;;;4.80;99.90;;;;;;5137324;27;20430;-75
2021/12/04 05:11:58;;;;;;;200.00;179.83;;;4.90;99.90;;;;;;5136677;27;20559;-75
2021/12/04 05:14:28;;;;;;;148.73;115.63;;;4.90;99.90;;;;;;5136797;27;20790;-76
2021/12/04 05:17:04;;;;;;;1647.73;339.33;;;4.90;99.90;;;;;;5155852;27;20434;-75
2021/12/04 05:19:40;;;;;;;1652.17;333.80;;;4.90;99.90;;;;;;5137083;27;20481;-75
2021/12/04 05:22:10;;;;;;;135.73;104.70;;;4.90;99.90;;;;;;5136986;27;20516;-76
2021/12/04 05:24:38;;;;;;;1649.83;385.03;;;4.90;99.90;;;;;;5155413;27;20610;-75
2021/12/04 05:27:07;;;;;;;128.90;79.27;;;4.90;99.90;;;;;;5136964;27;20498;-75
2021/12/04 05:29:41;;;;;;;301.33;160.90;;;4.90;99.90;;;;;;5137183;27;20445;-75
2021/12/04 05:32:12;;;;;;;241.63;127.50;;;4.90;99.90;;;;;;5136304;27;20488;-75
2021/12/04 05:34:40;;;;;;;1650.50;428.10;;;4.90;99.90;;;;;;5155515;27;20429;-75
2021/12/04 05:37:08;;;;;;;1650.97;384.57;;;4.90;99.90;;;;;;5155362;27;20468;-75
2021/12/04 05:39:37;;;;;;;212.00;127.90;;;4.90;99.90;;;;;;5155351;27;20433;-75
2021/12/04 05:42:06;;;;;;;258.43;163.97;;;4.90;99.90;;;;;;5136647;27;20508;-75
2021/12/04 05:44:34;;;;;;;132.73;88.60;;;4.90;99.90;;;;;;5155349;27;20438;-75
2021/12/04 05:47:08;;;;;;;145.80;113.57;;;4.90;99.90;;;;;;5155240;27;20430;-75
2021/12/04 05:49:48;;;;;;;157.60;141.87;;;4.90;99.90;;;;;;5137411;27;20434;-75
2021/12/04 05:52:22;;;;;;;351.03;220.83;;;4.90;99.90;;;;;;5159457;27;20472;-75
2021/12/04 05:55:12;;;;;;;1647.63;349.83;;;4.90;99.90;;;;;;5140974;27;20433;-75
2021/12/04 05:57:41;;;;;;;266.20;159.67;;;4.90;99.90;;;;;;5140624;27;21000;-75
2021/12/04 06:00:14;;;;;;;134.77;115.53;;;4.90;99.90;;;;;;5159242;27;20433;-75
2021/12/04 06:02:42;;;;;;;254.90;167.23;;;4.90;99.90;;;;;;5159320;27;20781;-75
2021/12/04 06:05:12;;;;;;;176.80;136.67;;;4.90;99.90;;;;;;5159313;27;20804;-75
2021/12/04 06:07:41;;;;;;;125.13;112.63;;;4.90;99.90;;;;;;5159114;27;20437;-75
2021/12/04 06:10:09;;;;;;;316.43;81.30;;;4.90;99.90;;;;;;5140404;27;20448;-75
2021/12/04 06:12:38;;;;;;;177.17;65.87;;;4.90;99.90;;;;;;5158713;27;20504;-75
2021/12/04 06:15:10;;;;;;;395.27;167.40;;;4.90;99.90;;;;;;5158690;27;20433;-75
2021/12/04 06:17:39;;;;;;;198.80;80.83;;;4.90;99.90;;;;;;5159076;27;20433;-75
2021/12/04 06:22:56;;;;;;;169.63;147.63;;;4.90;99.90;;;;;;5159078;27;20497;-75
2021/12/04 06:25:26;;;;;;;324.23;167.77;;;4.90;99.90;;;;;;5140180;27;20441;-75
2021/12/04 06:27:55;;;;;;;1915.37;495.40;;;4.90;99.90;;;;;;5140406;27;20499;-76
2021/12/04 06:30:25;;;;;;;114.90;100.83;;;4.90;99.90;;;;;;5158851;27;20446;-75
2021/12/04 06:32:54;;;;;;;84.43;77.47;;;4.90;99.90;;;;;;5139809;27;21002;-75
2021/12/04 06:35:24;;;;;;;132.33;70.00;;;4.90;99.90;;;;;;5140022;27;20473;-75
2021/12/04 06:37:52;;;;;;;145.20;106.20;;;4.90;99.90;;;;;;5158957;27;20507;-75
2021/12/04 06:40:26;;;;;;;143.20;95.47;;;4.90;99.90;;;;;;5139909;27;20448;-75
2021/12/04 06:42:55;;;;;;;1652.17;383.77;;;4.90;99.90;;;;;;5139830;27;20497;-76
2021/12/04 06:45:25;;;;;;;188.90;143.77;;;4.90;99.90;;;;;;5139767;27;20525;-75
2021/12/04 06:47:56;;;;;;;166.67;130.70;;;4.90;99.90;;;;;;5139871;27;20873;-75
2021/12/04 06:50:32;;;;;;;167.70;104.57;;;4.90;99.90;;;;;;5139784;27;20448;-75
2021/12/04 06:53:05;;;;;;;1999.90;520.47;;;4.90;99.90;;;;;;5139653;27;20487;-75
2021/12/04 06:55:39;;;;;;;152.53;125.20;;;4.90;99.90;;;;;;5139848;27;20486;-75
2021/12/04 06:58:07;;;;;;;155.33;121.17;;;4.90;99.90;;;;;;5139519;27;20845;-75
2021/12/04 07:00:35;;;;;;;1655.47;385.73;;;4.90;99.90;;;;;;5139381;27;20960;-75
2021/12/04 07:03:04;;;;;;;190.40;152.13;;;4.90;99.90;;;;;;5138695;27;20458;-76
2021/12/04 07:05:32;;;;;;;1650.67;404.37;;;4.90;99.90;;;;;;5139221;27;20445;-76
2021/12/04 07:08:01;;;;;;;100.77;92.57;;;4.90;99.90;;;;;;5158015;27;20462;-75
2021/12/04 07:10:29;;;;;;;110.10;101.07;;;4.90;99.90;;;;;;5158349;27;20842;-75
2021/12/04 07:12:58;;;;;;;200.47;105.13;;;4.90;99.90;;;;;;5139025;27;20509;-75
2021/12/04 07:15:27;;;;;;;156.90;99.97;;;4.90;99.90;;;;;;5139272;27;20475;-75
2021/12/04 07:17:57;;;;;;;189.33;138.53;;;4.90;99.90;;;;;;5157780;27;20928;-75
2021/12/04 07:20:28;;;;;;;1903.13;506.73;;;4.90;99.90;;;;;;5139404;27;20540;-75
2021/12/04 07:22:56;;;;;;;172.70;149.23;;;4.90;99.90;;;;;;5157880;27;20454;-75
2021/12/04 07:25:24;;;;;;;1657.50;381.37;;;4.90;99.90;;;;;;5139281;27;20451;-75
2021/12/04 07:27:52;;;;;;;1919.30;541.53;;;4.90;99.90;;;;;;5158313;27;20494;-75
2021/12/04 07:30:23;;;;;;;1523.00;373.17;;;4.90;99.90;;;;;;5139101;27;20452;-75
2021/12/04 07:32:52;;;;;;;172.00;81.43;;;4.90;99.90;;;;;;5138791;27;20993;-75
2021/12/04 07:35:20;;;;;;;1651.03;442.53;;;4.90;99.90;;;;;;5138921;27;20441;-75
2021/12/04 07:37:49;;;;;;;216.20;157.33;;;4.90;99.90;;;;;;5138774;27;20449;-76
2021/12/04 07:40:21;;;;;;;228.47;140.73;;;4.90;99.90;;;;;;5157829;27;20417;-75
2021/12/04 07:42:49;;;;;;;213.17;143.13;;;4.90;99.90;;;;;;5138737;27;20560;-75
2021/12/04 07:45:17;;;;;;;257.17;140.53;;;4.90;99.90;;;;;;5157252;27;20455;-75
2021/12/04 07:47:47;;;;;;;1649.83;394.77;;;4.90;99.90;;;;;;5157442;27;20523;-75
2021/12/04 07:50:16;;;;;;;201.23;67.20;;;4.90;99.90;;;;;;5138577;27;20473;-75
2021/12/04 07:52:44;;;;;;;229.13;73.03;;;4.90;99.90;;;;;;5138896;27;20469;-75
2021/12/04 07:55:12;;;;;;;144.80;113.27;;;4.90;99.90;;;;;;5138612;27;20478;-75
2021/12/04 07:57:40;;;;;;;245.00;163.40;;;4.90;99.90;;;;;;5139337;27;20547;-75
2021/12/04 08:00:13;;;;;;;1656.07;415.23;;;4.90;99.90;;;;;;5158117;27;20532;-75
2021/12/04 08:02:41;;;;;;;192.77;77.33;;;4.90;99.90;;;;;;5149112;27;20489;-75
2021/12/04 08:05:12;;;;;;;162.23;120.00;;;4.90;99.90;;;;;;5148883;27;20632;-75
2021/12/04 08:07:40;;;;;;;1924.33;501.77;;;4.90;99.90;;;;;;5164887;27;20460;-75
2021/12/04 08:10:11;;;;;;;278.00;91.57;;;4.90;99.90;;;;;;5147117;27;20524;-75
2021/12/04 08:12:39;;;;;;;107.27;94.03;;;4.90;99.90;;;;;;5147835;27;20477;-75
2021/12/04 08:15:10;;;;;;;1647.27;359.17;;;4.90;99.90;;;;;;5141738;27;20440;-75
2021/12/04 08:17:38;;;;;;;258.27;52.47;;;4.90;99.90;;;;;;5160289;27;20500;-75
2021/12/04 08:20:08;;;;;;;179.53;82.20;;;4.90;99.90;;;;;;5158176;27;20436;-75
2021/12/04 08:22:38;;;;;;;136.50;98.47;;;4.90;99.90;;;;;;5139125;27;20507;-75
2021/12/04 08:25:08;;;;;;;146.73;84.83;;;4.90;99.90;;;;;;5138793;27;20437;-75
2021/12/04 08:27:37;;;;;;;226.10;136.67;;;4.90;99.90;;;;;;5138262;27;20987;-75
2021/12/04 08:30:07;;;;;;;1712.83;401.40;;;4.90;99.90;;;;;;5138111;27;20585;-75
2021/12/04 08:32:35;;;;;;;193.13;69.77;;;4.90;99.90;;;;;;5156389;27;20568;-75
2021/12/04 08:35:05;;;;;;;179.17;86.77;;;4.90;99.90;;;;;;5156257;27;20516;-75
2021/12/04 08:37:33;;;;;;;182.17;61.57;;;4.90;99.90;;;;;;5137582;27;20452;-75
2021/12/04 08:40:04;;;;;;;195.83;73.30;;;4.90;99.90;;;;;;5156680;27;20434;-75
2021/12/04 08:42:32;;;;;;;204.00;58.77;;;4.90;99.90;;;;;;5156694;27;20896;-75
2021/12/04 08:45:01;;;;;;;131.03;67.20;;;4.90;99.90;;;;;;5137771;27;20447;-75
2021/12/04 08:47:29;;;;;;;1548.43;396.27;;;5.00;99.90;;;;;;5137547;27;20498;-75
2021/12/04 08:49:57;;;;;;;171.90;52.97;;;5.00;99.90;;;;;;5137880;27;21042;-75
2021/12/04 08:52:25;;;;;;;101.17;63.47;;;5.00;99.90;;;;;;5137332;27;20504;-76
2021/12/04 08:54:54;;;;;;;119.77;58.27;;;5.00;99.90;;;;;;5155967;27;21039;-75
2021/12/04 08:57:23;;;;;;;131.97;66.13;;;5.00;99.90;;;;;;5156082;27;20438;-75
2021/12/04 08:59:52;;;;;;;191.80;58.70;;;5.00;99.90;;;;;;5137540;27;20532;-75
2021/12/04 09:02:20;;;;;;;110.30;68.90;;;5.00;99.90;;;;;;5137035;27;20500;-75
2021/12/04 09:04:49;;;;;;;158.53;59.60;;;5.00;99.90;;;;;;5155981;27;20497;-75
2021/12/04 09:07:19;;;;;;;808.97;256.50;;;5.00;99.90;;;;;;5137217;27;20445;-75
2021/12/04 09:09:47;;;;;;;845.30;259.77;;;5.00;99.90;;;;;;5137167;27;20536;-75
2021/12/04 09:12:24;;;;;;;198.77;53.33;;;5.00;99.90;;;;;;5137073;27;20473;-75
2021/12/04 09:14:53;;;;;;;157.67;73.37;;;5.00;99.90;;;;;;5136741;27;20552;-75
2021/12/04 09:17:22;;;;;;;118.27;59.47;;;5.00;99.90;;;;;;5155544;27;21004;-75
2021/12/04 09:19:51;;;;;;;213.30;76.87;;;5.00;99.90;;;;;;5136792;27;20473;-75
2021/12/04 09:22:27;;;;;;;131.40;57.13;;;5.10;99.90;;;;;;5137693;27;20471;-75
2021/12/04 09:25:04;;;;;;;85.83;77.33;;;5.10;99.90;;;;;;5136455;27;20486;-75
2021/12/04 09:27:44;;;;;;;175.27;56.20;;;5.10;99.90;;;;;;5155317;27;20904;-75
2021/12/04 09:30:47;;;;;;;108.70;64.43;;;5.10;99.90;;;;;;5136842;27;20528;-75
2021/12/04 09:33:56;;;;;;;1999.90;572.27;;;5.10;99.90;;;;;;5136750;27;20504;-75
2021/12/04 09:36:43;;;;;;;117.07;61.50;;;5.10;99.90;;;;;;5136537;27;20484;-75
2021/12/04 10:12:53;;;;;;;214.50;51.83;;;5.10;99.90;;;;;;5155098;27;20453;-75
2021/12/04 10:21:28;;;;;;;119.50;54.73;;;5.20;99.90;;;;;;5112474;27;20503;-75
2021/12/04 10:32:39;;;;;;;286.63;61.27;;;5.20;99.90;;;;;;5135976;27;20524;-75
2021/12/04 10:35:14;;;;;;;136.27;48.17;;;5.20;99.90;;;;;;5136077;27;20856;-75
2021/12/04 10:37:52;;;;;;;215.30;56.97;;;5.20;99.90;;;;;;5138595;27;20441;-75
2021/12/04 10:40:24;;;;;;;186.70;49.53;;;5.20;99.90;;;;;;5140086;27;20445;-75
2021/12/04 10:42:57;;;;;;;103.13;44.33;;;5.20;99.90;;;;;;5139767;27;20533;-79
2021/12/04 10:45:33;;;;;;;133.10;42.90;;;5.20;99.90;;;;;;5158691;27;20477;-75
2021/12/04 10:48:07;;;;;;;158.83;49.97;;;5.20;99.90;;;;;;5158129;27;20919;-75
2021/12/04 10:50:44;;;;;;;106.30;54.30;;;5.30;99.90;;;;;;5139661;27;20533;-75
2021/12/04 10:53:21;;;;;;;189.43;49.93;;;5.20;99.90;;;;;;5139698;27;20540;-75
2021/12/04 10:55:53;;;;;;;124.53;42.17;;;5.30;99.90;;;;;;5139666;27;20910;-75
2021/12/04 11:01:21;;;;;;;282.63;66.10;;;5.30;99.90;;;;;;5139421;27;20438;-75
2021/12/04 11:03:57;;;;;;;186.00;67.40;;;5.30;99.90;;;;;;5139372;27;20454;-75
2021/12/04 11:21:07;;;;;;;140.43;59.20;;;5.40;99.90;;;;;;5158042;27;20417;-75
2021/12/04 11:43:16;;;;;;;122.87;41.40;;;5.40;99.90;;;;;;5138087;27;20537;-75
2021/12/04 11:45:49;;;;;;;264.17;60.00;;;5.50;99.90;;;;;;5138578;27;20442;-75
2021/12/04 11:48:29;;;;;;;154.77;48.53;;;5.50;99.90;;;;;;5157061;27;20753;-75
2021/12/04 11:50:58;;;;;;;291.70;60.53;;;5.50;99.90;;;;;;5138390;27;20879;-75
2021/12/04 11:53:29;;;;;;;300.70;50.23;;;5.50;99.90;;;;;;5156782;27;20465;-75
2021/12/04 11:55:58;;;;;;;95.13;36.50;;;5.50;99.90;;;;;;5138212;27;20560;-75
2021/12/04 11:58:31;;;;;;;85.20;48.13;;;5.50;99.90;;;;;;5156591;27;20442;-75
2021/12/04 12:01:03;;;;;;;286.23;57.90;;;5.50;99.90;;;;;;5138506;27;20437;-75
2021/12/04 12:03:35;;;;;;;174.43;45.40;;;5.50;99.90;;;;;;5156531;27;20461;-75
2021/12/04 12:06:06;;;;;;;199.43;49.97;;;5.50;99.90;;;;;;5157089;27;20460;-76
2021/12/04 12:08:36;;;;;;;232.03;51.47;;;5.50;99.90;;;;;;5138501;27;20840;-75
2021/12/04 12:11:10;;;;;;;141.10;43.87;;;5.50;99.90;;;;;;5137929;27;20470;-75
2021/12/04 12:13:41;;;;;;;128.87;39.93;;;5.50;99.90;;;;;;5138496;27;20453;-75
2021/12/04 12:16:15;;;;;;;140.57;42.20;;;5.60;99.90;;;;;;5156534;27;20458;-75
2021/12/04 12:18:49;;;;;;;213.20;54.13;;;5.60;99.90;;;;;;5137908;27;20472;-75
2021/12/04 12:21:22;;;;;;;154.93;41.47;;;5.60;99.90;;;;;;5156136;27;20429;-75
2021/12/04 12:27:10;;;;;;;137.40;49.20;;;5.70;99.90;;;;;;5137807;27;20848;-75
2021/12/04 12:32:49;;;;;;;286.53;59.17;;;5.70;99.90;;;;;;5056265;27;20533;-75
2021/12/04 12:38:09;;;;;;;208.83;44.43;;;5.70;99.90;;;;;;5132635;27;21004;-75
2021/12/04 12:40:38;;;;;;;252.83;47.30;;;5.70;99.90;;;;;;5132606;27;20454;-74
2021/12/04 12:43:14;;;;;;;170.83;53.10;;;5.70;99.90;;;;;;5067418;28;20541;-74
2021/12/04 12:45:53;;;;;;;235.03;45.57;;;5.70;99.90;;;;;;5132867;27;20442;-74
2021/12/04 12:48:21;;;;;;;201.07;48.73;;;5.70;99.90;;;;;;5057940;28;20450;-74
2021/12/04 12:50:50;;;;;;;263.80;49.60;;;5.70;99.90;;;;;;5124909;27;20455;-75
2021/12/04 12:53:20;;;;;;;260.67;46.00;;;5.70;99.90;;;;;;5124972;27;20476;-75
2021/12/04 12:55:53;;;;;;;207.40;45.97;;;5.60;99.90;;;;;;5056142;28;20497;-75
2021/12/04 12:58:26;;;;;;;214.97;51.40;;;5.60;99.90;;;;;;5120507;27;20452;-75
2021/12/04 13:12:23;;;;;;;154.50;45.33;;;5.60;99.90;;;;;;5051285;28;20802;-75
2021/12/04 13:14:54;;;;;;;219.53;49.53;;;5.60;99.90;;;;;;5119425;27;20512;-75
2021/12/04 13:17:25;;;;;;;157.50;38.43;;;5.60;99.90;;;;;;5050675;28;20984;-74
2021/12/04 13:19:57;;;;;;;200.57;49.53;;;5.60;99.90;;;;;;5119345;27;20450;-74
2021/12/04 13:22:28;;;;;;;203.03;45.20;;;5.60;99.90;;;;;;5119977;27;20869;-75
2021/12/04 13:24:59;;;;;;;258.97;50.10;;;5.60;99.90;;;;;;5119316;27;20466;-75
2021/12/04 13:30:00;;;;;;;192.67;39.47;;;5.60;99.90;;;;;;5050626;28;20446;-75
2021/12/04 13:32:34;;;;;;;174.27;42.03;;;5.70;99.90;;;;;;5126463;27;21093;-75
2021/12/04 13:35:08;;;;;;;256.63;59.57;;;5.60;99.90;;;;;;5155093;27;20492;-75
2021/12/04 13:37:37;;;;;;;204.47;45.73;;;5.60;99.90;;;;;;5155224;27;20914;-76
2021/12/04 13:40:10;;;;;;;252.23;51.10;;;5.70;99.90;;;;;;5155205;27;20461;-75
2021/12/04 13:42:39;;;;;;;216.10;47.07;;;5.60;99.90;;;;;;5136653;27;20557;-75
2021/12/04 13:45:11;;;;;;;199.27;54.27;;;5.60;99.90;;;;;;5136736;27;20438;-75
2021/12/04 13:47:40;;;;;;;112.30;43.97;;;5.60;99.90;;;;;;5155517;27;20414;-75
2021/12/04 13:52:54;;;;;;;240.10;65.57;;;5.60;99.90;;;;;;5154157;27;20827;-75
2021/12/04 13:55:23;;;;;;;132.33;40.03;;;5.60;99.90;;;;;;5136407;27;20572;-75
2021/12/04 13:57:52;;;;;;;214.47;52.50;;;5.60;99.90;;;;;;5156068;27;20438;-75
2021/12/04 14:00:22;;;;;;;181.23;48.03;;;5.60;99.90;;;;;;5137166;27;20466;-75
2021/12/04 14:02:50;;;;;;;264.50;54.23;;;5.60;99.90;;;;;;5136412;27;20896;-75
2021/12/04 14:05:21;;;;;;;144.47;43.27;;;5.60;99.90;;;;;;5136366;27;20446;-75
2021/12/04 14:07:53;;;;;;;174.93;38.33;;;5.60;99.90;;;;;;5136464;27;20459;-76
2021/12/04 14:10:25;;;;;;;168.83;36.43;;;5.60;99.90;;;;;;5155236;27;20422;-75
2021/12/04 14:12:55;;;;;;;266.30;56.70;;;5.60;99.90;;;;;;5139217;27;20563;-75
2021/12/04 14:15:26;;;;;;;178.73;47.17;;;5.60;99.90;;;;;;5140414;27;20638;-75
2021/12/04 14:18:00;;;;;;;177.63;38.93;;;5.60;99.90;;;;;;5159128;27;20446;-75
2021/12/04 14:20:29;;;;;;;241.00;54.43;;;5.60;99.90;;;;;;5140313;27;20964;-75
2021/12/04 14:22:58;;;;;;;222.87;49.37;;;5.50;99.90;;;;;;5158704;27;20441;-76
2021/12/04 14:25:27;;;;;;;224.10;58.57;;;5.60;99.90;;;;;;5158788;27;20459;-76
2021/12/04 14:28:00;;;;;;;111.20;94.63;;;5.60;99.90;;;;;;5158932;27;20870;-76
2021/12/04 14:30:34;;;;;;;183.27;41.17;;;5.50;99.90;;;;;;5158588;27;20418;-75
2021/12/04 14:33:05;;;;;;;177.97;70.17;;;5.50;99.90;;;;;;5158510;27;20464;-76
2021/12/04 14:35:38;;;;;;;213.63;92.47;;;5.50;99.90;;;;;;5139980;27;20497;-76
2021/12/04 14:38:16;;;;;;;118.97;65.03;;;5.50;99.90;;;;;;5159079;27;20424;-76
2021/12/04 14:40:58;;;;;;;163.70;61.67;;;5.50;99.90;;;;;;5158616;27;20485;-75
2021/12/04 14:43:40;;;;;;;429.07;155.87;;;5.50;99.90;;;;;;5139199;27;20465;-76
2021/12/04 14:46:25;;;;;;;437.90;200.17;;;5.50;99.90;;;;;;5139266;27;20433;-76
2021/12/04 14:49:06;;;;;;;740.97;238.97;;;5.50;99.90;;;;;;5158438;27;20420;-76
2021/12/04 14:51:37;;;;;;;235.43;122.93;;;5.50;99.90;;;;;;5139375;27;20597;-76
2021/12/04 14:54:05;;;;;;;163.63;47.67;;;5.50;99.90;;;;;;5139421;27;20888;-76
2021/12/04 14:56:34;;;;;;;187.03;42.77;;;5.50;99.90;;;;;;5157799;27;20465;-76
2021/12/04 14:59:13;;;;;;;104.30;39.63;;;5.50;99.90;;;;;;5157913;27;20986;-76
2021/12/04 15:01:43;;;;;;;219.57;110.73;;;5.50;99.90;;;;;;5140174;27;20433;-76
2021/12/04 15:04:12;;;;;;;330.87;125.33;;;5.50;99.90;;;;;;5139734;27;20569;-76
2021/12/04 15:06:41;;;;;;;301.47;124.77;;;5.50;99.90;;;;;;5139300;27;20446;-76
2021/12/04 15:09:11;;;;;;;193.97;53.13;;;5.50;99.90;;;;;;5158169;27;20430;-76
2021/12/04 15:11:42;;;;;;;245.67;49.13;;;5.50;99.90;;;;;;5158234;27;20837;-76
2021/12/04 15:14:14;;;;;;;158.20;80.00;;;5.40;99.90;;;;;;5139013;27;20489;-76
2021/12/04 15:16:49;;;;;;;241.00;133.27;;;5.50;99.90;;;;;;5139172;27;20501;-76
2021/12/04 15:19:22;;;;;;;307.73;168.53;;;5.40;99.90;;;;;;5139097;27;20434;-76
2021/12/04 15:21:57;;;;;;;315.87;144.27;;;5.40;99.90;;;;;;5138821;27;20430;-75